This is the latest recevied weather packets stored in our database for station/object KI4UEM. If no packets are shown the sender has not sent any weather packets the latest 10 day(s).
| Time | Temp. | Humidity | Pressure | Rain* | Wind** | Luminosity | Snow |
|---|---|---|---|---|---|---|---|
| 1777261216 | 16.11° C | 80% | 1018.8 hPa | 0 mm | - | 0 W/m² | - |
| 1777260616 | 16.67° C | 80% | 1018.7 hPa | 0 mm | - | 0 W/m² | - |
| 1777253416 | 18.33° C | 76% | 1016.9 hPa | 0 mm | - | 0 W/m² | - |
| 1777252816 | 18.89° C | 76% | 1016.7 hPa | 0 mm | - | 0 W/m² | - |
| 1777248616 | 21.67° C | 72% | 1015 hPa | 0 mm | - | 0 W/m² | - |
| 1777245616 | 24.44° C | 63% | 1014.3 hPa | 0 mm | - | 100 W/m² | - |
| 1777243216 | 26.11° C | 52% | 1013.6 hPa | 0 mm | - | 290 W/m² | - |
| 1777241416 | 26.11° C | 53% | 1013.3 hPa | 0 mm | - | 384 W/m² | - |
| 1777240216 | 26.67° C | 53% | 1013.1 hPa | 0 mm | - | 536 W/m² | - |
| 1777239016 | 26.67° C | 54% | 1013.1 hPa | 0 mm | - | 532 W/m² | - |
| 1777230618 | 26.11° C | 58% | 1013.3 hPa | 0 mm | - | 931 W/m² | - |
| 1777225218 | 25° C | 62% | 1013.2 hPa | 0 mm | - | 381 W/m² | - |
| 1777222817 | 24.44° C | 63% | 1013.5 hPa | 0 mm | - | 313 W/m² | - |
| 1777215617 | 23.33° C | 73% | 1013.6 hPa | 0 mm | - | 495 W/m² | - |
| 1777210817 | 20.56° C | 80% | 1013 hPa | 0 mm | - | 449 W/m² | - |
| 1777209617 | 20° C | 83% | 1013 hPa | 0 mm | - | 430 W/m² | - |
| 1777207817 | 18.89° C | 88% | 1013.2 hPa | 0 mm | - | 204 W/m² | - |
| 1777207217 | 18.33° C | 89% | 1013 hPa | 0 mm | - | 157 W/m² | - |
| 1777205417 | 17.78° C | 91% | 1013.1 hPa | 0 mm | - | 118 W/m² | - |
| 1777195837 | 17.22° C | 89% | 1010.6 hPa | 0 mm | - | 0 W/m² | - |
| 1777190457 | 18.89° C | 87% | 1010.9 hPa | 0 mm | - | 0 W/m² | - |
| 1777188016 | 18.89° C | 85% | 1010.8 hPa | 0 mm | - | 0 W/m² | - |
| 1777174216 | 21.67° C | 72% | 1011.7 hPa | 0 mm | - | 0 W/m² | - |
| 1777170616 | 21.67° C | 71% | 1011.5 hPa | 0 mm | - | 0 W/m² | - |
| 1777165216 | 23.33° C | 64% | 1010.4 hPa | 0 mm | - | 0 W/m² | - |
* Rain latest hour (hover to see other rain measurements)
** Current wind speed in m/s (hover to see current wind gust speed)